コート・ダジュール空港(ニース)の過去48時間の天気

コート・ダジュール空港(ニース) (Nice)

現在時刻: 9/25 23:43 CEST (9/25 21:43 UTC) 以下の時間は現地時間です。

過去48時間のMETAR気象情報
時間 風向 風速(m/s) 視程 気温(℃) 湿度(%) 気圧(hPa) 天気現象
25 23:00 北西 3 10km以上 18 83 1010
25 22:30 北北西 2 10km以上 18 88 1010
25 22:00 北北東 4 10km以上 19 83 1010
25 21:30 北北東 4 10km以上 19 83 1010
25 21:00 北北東 6 10km以上 19 83 1010
25 20:30 北北東 6 10km以上 20 78 1009
25 20:00 北北東 4 10km以上 21 73 1009
25 19:30 5 10km以上 21 78 1009
25 19:00 南南東 4 10km以上 21 78 1009
25 18:30 5 10km以上 21 78 1009
25 18:00 6 10km以上 21 78 1009
25 17:30 4 10km以上 21 78 1009
25 17:00 5 10km以上 21 73 1010
25 16:30 南南西 5 10km以上 21 73 1010 弱いしゅう雨
25 16:00 5 10km以上 21 69 1010
25 15:30 5 10km以上 22 69 1010
25 15:00 6 10km以上 21 69 1010
25 14:30 6 10km以上 21 73 1010
25 14:00 6 10km以上 21 73 1010
25 13:30 5 10km以上 21 73 1011
25 13:00 南南西 5 10km以上 21 69 1011
25 12:30 南南西 5 10km以上 21 69 1011
25 12:00 南南西 4 10km以上 21 73 1011 周辺でしゅう雨
25 11:30 南西 3 10km以上 20 73 1011
25 11:00 西 2 10km以上 20 68 1011
25 10:30 北西 3 10km以上 20 68 1011
25 10:00 北北西 4 10km以上 19 73 1011
25 09:30 北西 4 10km以上 18 77 1011
25 09:00 北北西 4 10km以上 17 83 1011
25 08:30 北西 4 10km以上 17 83 1011
25 08:00 北西 5 10km以上 16 88 1011
25 07:30 北西 5 10km以上 16 88 1010
25 07:00 北西 4 10km以上 16 88 1011
25 06:30 西北西 3 10km以上 17 88 1011
25 06:00 北西 3 10km以上 17 88 1011
25 05:30 北北西 4 10km以上 16 88 1011
25 05:00 西北西 3 10km以上 17 88 1011
25 04:30 北北西 4 10km以上 17 88 1011
25 04:00 西北西 3 10km以上 17 88 1011
25 03:30 北西 3 10km以上 17 88 1011
25 03:00 北西 2 10km以上 17 88 1011
25 02:30 不定 1 10km以上 17 88 1012 弱い雨
25 02:00 北西 4 10km以上 17 88 1012 弱い雨
25 01:30 北西 3 10km以上 17 88 1012 弱い雨
25 01:00 北西 3 10km以上 17 94 1012 弱い雨
25 00:30 北北西 2 10km以上 17 94 1012 弱い雨
25 00:00 北北西 2 10km以上 17 94 1012
24 23:30 北北西 3 10km以上 17 94 1012
24 23:00 北北西 3 10km以上 17 94 1012
24 22:30 北北西 2 10km以上 18 88 1012
24 22:00 2 10km以上 18 88 1012
24 21:30 北北西 2 10km以上 18 88 1013
24 21:00 東北東 4 10km以上 19 78 1013
24 20:30 東北東 3 10km以上 19 83 1012
24 19:30 東北東 3 10km以上 18 83 1012
24 19:00 東北東 3 10km以上 18 88 1012
24 18:30 東北東 3 10km以上 18 83 1012
24 18:00 北東 2 10km以上 18 83 1012
24 17:30 北東 2 10km以上 18 88 1013
24 17:00 北東 3 10km以上 17 94 1013
24 16:30 北北西 3 10km以上 17 88 1013 弱い雨
24 16:00 3 10km以上 17 94 1013 弱い雨
24 15:30 北東 3 3000m 17 94 1013 弱い雨
24 15:00 北東 5 3000m 17 94 1013 弱い雨
24 14:30 4 2000m 17 88 1014 弱い雨
24 14:00 東南東 4 2000m 17 88 1014 弱い雨
24 13:30 東南東 5 2000m 18 83 1014
24 13:00 北東 5 10km以上 18 88 1014 弱い雨
24 12:30 北北東 4 6000m 18 83 1014 弱い雨
24 12:00 3 10km以上 18 83 1015 弱い雨
24 11:30 4 10km以上 17 88 1015 弱い雨
24 11:00 4 10km以上 17 88 1015 弱い雨
24 10:30 5 10km以上 17 88 1015 弱い雨
24 10:00 4 10km以上 17 88 1015 弱い雨
24 09:30 4 10km以上 17 88 1015 弱い雨
24 09:00 4 10km以上 16 94 1015 弱い雨
24 08:30 西北西 3 3000m 17 83 1015
24 08:17 北北西 2 4000m 17 83 1015
24 08:00 3 10km以上 17 88 1015 弱い雨
24 07:30 北西 4 10km以上 19 68 1015 弱い雨
24 07:00 北北西 4 10km以上 19 64 1014
24 06:30 北北西 4 10km以上 19 60 1014
24 06:00 北北西 4 10km以上 19 60 1015
24 05:30 北北西 4 10km以上 19 60 1015
24 05:00 北北西 4 10km以上 19 64 1015
24 04:30 北北西 4 10km以上 19 64 1015
24 04:00 北北西 4 10km以上 19 60 1015
24 03:30 北北西 3 10km以上 19 64 1016
24 03:00 北北西 4 10km以上 19 64 1016
24 02:30 北北西 4 10km以上 19 64 1016
24 02:00 北西 4 10km以上 19 64 1017
24 01:30 北西 4 10km以上 19 64 1017
24 01:00 北北西 3 10km以上 20 60 1017
24 00:30 北西 3 10km以上 20 60 1017
24 00:00 北西 3 10km以上 20 60 1017
LFMN 252100Z 32005KT 9999 FEW033 SCT260 18/15 Q1010 NOSIG
LFMN 252030Z 34004KT 310V010 9999 FEW033 SCT260 18/16 Q1010 NOSIG
LFMN 252000Z 02007KT 9999 FEW033 SCT260 19/16 Q1010 NOSIG
LFMN 251930Z 02008KT CAVOK 19/16 Q1010 NOSIG
LFMN 251900Z 03011KT 9999 FEW030CB SCT260 19/16 Q1010 NOSIG
LFMN 251830Z 02011KT 9999 FEW030CB SCT260 20/16 Q1009 NOSIG
LFMN 251800Z 02008KT 350V060 9999 FEW020 FEW030CB SCT033 21/16 Q1009 NOSIG
LFMN 251730Z 17009KT 9999 SCT020 FEW030TCU 21/17 Q1009 NOSIG
LFMN 251700Z 16007KT 9999 SCT021 FEW030TCU SCT056 21/17 Q1009 NOSIG
LFMN 251630Z 18010KT 9999 SCT021 FEW030TCU SCT056 21/17 Q1009 NOSIG
LFMN 251600Z 18011KT 9999 SCT021 FEW030TCU SCT056 21/17 Q1009 NOSIG
LFMN 251530Z 19008KT 9999 SCT023 FEW033TCU SCT043 21/17 Q1009 NOSIG
LFMN 251500Z 19010KT 9999 SCT028 SCT033TCU 21/16 Q1010 NOSIG
LFMN 251430Z 20010KT 9999 -SHRA FEW025 FEW033CB SCT040 21/16 Q1010 NOSIG
LFMN 251400Z 18010KT 160V220 9999 FEW025 FEW030CB SCT230 21/15 Q1010 NOSIG
LFMN 251330Z 19010KT 9999 FEW023 FEW026CB SCT230 22/16 Q1010 BECMG NSW
LFMN 251300Z 19012KT 9999 FEW023 FEW030CB SCT230 21/15 Q1010 NOSIG
LFMN 251230Z 19012KT 9999 FEW023TCU SCT230 21/16 Q1010 NOSIG
LFMN 251200Z 19011KT 9999 FEW023 SCT140 21/16 Q1010 NOSIG
LFMN 251130Z 19010KT 9999 FEW023 SCT140 21/16 Q1011 NOSIG
LFMN 251100Z 21010KT 180V240 9999 SCT025 SCT140 21/15 Q1011 NOSIG
LFMN 251030Z 20010KT 9999 SCT026 21/15 Q1011 NOSIG
LFMN 251000Z 21008KT 9999 VCSH SCT026 21/16 Q1011 NOSIG
LFMN 250930Z 22006KT 180V240 9999 SCT040 20/15 Q1011 NOSIG
LFMN 250900Z 26004KT 220V300 9999 FEW030 20/14 Q1011 NOSIG
LFMN 250830Z 32005KT 280V350 9999 FEW030 20/14 Q1011 NOSIG
LFMN 250800Z 33008KT 9999 FEW030 19/14 Q1011 NOSIG
LFMN 250730Z 32008KT 9999 FEW030 18/14 Q1011 NOSIG
LFMN 250700Z 33008KT 9999 FEW030 17/14 Q1011 NOSIG
LFMN 250630Z 32008KT 9999 FEW030 17/14 Q1011 NOSIG
LFMN 250600Z 32009KT 9999 FEW030 16/14 Q1011 NOSIG
LFMN 250530Z 32010KT 9999 FEW030 16/14 Q1010 NOSIG
LFMN 250500Z 32008KT 9999 BKN100 16/14 Q1011 NOSIG
LFMN 250430Z 30005KT 9999 BKN100 17/15 Q1011 NOSIG
LFMN 250400Z 32006KT 9999 SCT100 17/15 Q1011 NOSIG
LFMN 250330Z 33007KT 9999 SCT100 16/14 Q1011 NOSIG
LFMN 250300Z 30006KT 9999 SCT100 17/15 Q1011 NOSIG
LFMN 250230Z 34007KT 9999 SCT100 17/15 Q1011 NOSIG
LFMN 250200Z 30006KT 9999 SCT100 17/15 Q1011 NOSIG
LFMN 250130Z 32005KT 9999 SCT100 17/15 Q1011 NOSIG
LFMN 250100Z 32003KT 260V020 9999 SCT100 17/15 Q1011 NOSIG
LFMN 250030Z VRB01KT 9999 -RA FEW060 OVC100 17/15 Q1012 NOSIG
LFMN 250000Z 32008KT 9999 -RA FEW060 OVC100 17/15 Q1012 NOSIG
LFMN 242330Z 31005KT 9999 -RA FEW066 OVC100 17/15 Q1012 NOSIG
LFMN 242300Z 32005KT 290V350 9999 -RA FEW033 BKN100 17/16 Q1012 NOSIG
LFMN 242230Z 33004KT 9999 -RA FEW033 BKN110 17/16 Q1012 NOSIG
LFMN 242200Z 34003KT 9999 FEW063 BKN130 17/16 Q1012 NOSIG
LFMN 242130Z 34006KT 9999 FEW017 BKN130 17/16 Q1012 NOSIG
LFMN 242100Z 33005KT 9999 FEW017 BKN130 17/16 Q1012 NOSIG
LFMN 242030Z 34004KT 9999 SCT017 OVC050 18/16 Q1012 NOSIG
LFMN 242000Z 35004KT 9999 SCT018 OVC043 18/16 Q1012 NOSIG
LFMN 241930Z 33004KT 9999 SCT018 OVC036 18/16 Q1013 NOSIG
LFMN 241900Z 06007KT 340V090 9999 SCT018 OVC036 19/15 Q1013 NOSIG
LFMN 241830Z 07006KT 9999 BKN017 OVC030 19/16 Q1012 NOSIG
LFMN 241730Z 07006KT 9999 SCT013 OVC030 18/15 Q1012 NOSIG
LFMN 241700Z 06006KT 020V100 9999 FEW013 OVC036 18/16 Q1012 NOSIG
LFMN 241630Z 06005KT 010V090 9999 FEW013 OVC036 18/15 Q1012 NOSIG
LFMN 241600Z 04004KT 020V090 9999 FEW007 OVC036 18/15 Q1012 NOSIG
LFMN 241530Z 04004KT 010V070 9999 FEW007 OVC036 18/16 Q1013 NOSIG
LFMN 241500Z 05006KT 9999 FEW007 OVC036 17/16 Q1013 NOSIG
LFMN 241430Z 34005KT 310V030 9999 -RA FEW007 OVC036 17/15 Q1013 NOSIG
LFMN 241400Z 01005KT 9999 -RA FEW007 SCT020 OVC043 17/16 Q1013 NOSIG
LFMN 241330Z 04005KT 010V070 3000 -RA SCT007 BKN020 OVC033 17/16 Q1013 NOSIG
LFMN 241300Z 04009KT 3000 -RA SCT007 BKN020 OVC033 17/16 Q1013 NOSIG
LFMN 241230Z 08008KT 050V110 2000 -RA SCT009 BKN020 OVC066 17/15 Q1014 NOSIG
LFMN 241200Z 11007KT 2000 -RA SCT009 BKN020 OVC066 17/15 Q1014 NOSIG
LFMN 241130Z 11010KT 2000 RA BKN018 OVC066 18/15 Q1014 NOSIG
LFMN 241100Z 05010KT 020V080 9999 -RA BKN018 OVC066 18/16 Q1014 NOSIG
LFMN 241030Z 03007KT 350V070 6000 -RA BKN018 OVC066 18/15 Q1014 NOSIG
LFMN 241000Z 36006KT 330V030 9999 -RA FEW020 OVC066 18/15 Q1015 NOSIG
LFMN 240930Z 01007KT 9999 -RA FEW020 OVC066 17/15 Q1015 NOSIG
LFMN 240900Z 01008KT 9999 -RA FEW020 OVC066 17/15 Q1015 NOSIG
LFMN 240830Z 01009KT 9999 -RA FEW020 SCT050 OVC076 17/15 Q1015 NOSIG
LFMN 240800Z 01008KT 9999 -RA FEW020 SCT050 OVC100 17/15 Q1015 NOSIG
LFMN 240730Z 36007KT 9999 -RA FEW020 BKN050 17/15 Q1015 NOSIG
LFMN 240700Z 35007KT 9999 -RA FEW023 BKN033 16/15 Q1015 NOSIG
LFMN 240630Z 30005KT 3000 RA FEW023 BKN033 17/14 Q1015 NOSIG
LFMN 240617Z 33003KT 270V360 4000 RA BKN033 17/14 Q1015 NOSIG
LFMN 240600Z 35006KT 9999 -RA BKN033 17/15 Q1015 NOSIG
LFMN 240530Z 32007KT 9999 -RA BKN040 BKN070 19/13 Q1015 NOSIG
LFMN 240500Z 33007KT 9999 SCT040 BKN070 BKN110 19/12 Q1014 NOSIG
LFMN 240430Z 33008KT 9999 BKN070 BKN150 19/11 Q1014 NOSIG
LFMN 240400Z 34007KT 9999 BKN070 BKN150 19/11 Q1015 NOSIG
LFMN 240330Z 33008KT 9999 BKN060 BKN180 19/11 Q1015 NOSIG
LFMN 240300Z 33008KT 9999 SCT060 BKN180 19/12 Q1015 NOSIG
LFMN 240230Z 33007KT 9999 FEW050 BKN180 19/12 Q1015 NOSIG
LFMN 240200Z 33007KT 9999 FEW050 BKN180 19/11 Q1015 NOSIG
LFMN 240130Z 33006KT 9999 FEW050 BKN160 19/12 Q1016 NOSIG
LFMN 240100Z 33007KT 9999 FEW050 BKN180 19/12 Q1016 NOSIG
LFMN 240030Z 34007KT 9999 FEW050 BKN200 19/12 Q1016 NOSIG
LFMN 240000Z 32007KT 9999 FEW050 BKN230 19/12 Q1017 NOSIG
LFMN 232330Z 32007KT 9999 FEW030 BKN046 19/12 Q1017 NOSIG
LFMN 232300Z 33005KT 9999 FEW030 BKN046 20/12 Q1017 NOSIG
LFMN 232230Z 32005KT 9999 FEW030 BKN046 20/12 Q1017 NOSIG
LFMN 232200Z 32005KT 9999 FEW030 BKN046 20/12 Q1017 NOSIG